sensor_id;sensor_type;location;lat;lon;timestamp;temperature;humidity
52030;DHT22;38043;53.224;6.580;2023-08-12T00:00:20;20.00;99.90
52030;DHT22;38043;53.224;6.580;2023-08-12T00:02:46;20.00;99.90
52030;DHT22;38043;53.224;6.580;2023-08-12T00:05:13;20.00;99.90
52030;DHT22;38043;53.224;6.580;2023-08-12T00:07:41;20.00;99.90
52030;DHT22;38043;53.224;6.580;2023-08-12T00:10:07;19.90;99.90
52030;DHT22;38043;53.224;6.580;2023-08-12T00:12:37;19.90;99.90
52030;DHT22;38043;53.224;6.580;2023-08-12T00:15:05;19.90;99.90
52030;DHT22;38043;53.224;6.580;2023-08-12T00:17:32;19.90;99.90
52030;DHT22;38043;53.224;6.580;2023-08-12T00:19:58;19.90;99.90
52030;DHT22;38043;53.224;6.580;2023-08-12T00:22:24;19.90;99.90
52030;DHT22;38043;53.224;6.580;2023-08-12T00:24:51;19.90;99.90
52030;DHT22;38043;53.224;6.580;2023-08-12T00:27:17;19.90;99.90
52030;DHT22;38043;53.224;6.580;2023-08-12T00:29:43;19.90;99.90
52030;DHT22;38043;53.224;6.580;2023-08-12T00:32:09;19.90;99.90
52030;DHT22;38043;53.224;6.580;2023-08-12T00:34:35;19.90;99.90
52030;DHT22;38043;53.224;6.580;2023-08-12T00:37:01;19.90;99.90
52030;DHT22;38043;53.224;6.580;2023-08-12T00:39:27;19.90;99.90
52030;DHT22;38043;53.224;6.580;2023-08-12T00:41:52;19.90;99.90
52030;DHT22;38043;53.224;6.580;2023-08-12T00:44:18;19.90;99.90
52030;DHT22;38043;53.224;6.580;2023-08-12T00:46:44;19.90;99.90
52030;DHT22;38043;53.224;6.580;2023-08-12T00:49:11;19.90;99.90
52030;DHT22;38043;53.224;6.580;2023-08-12T00:51:39;19.90;99.90
52030;DHT22;38043;53.224;6.580;2023-08-12T00:54:06;19.80;99.90
52030;DHT22;38043;53.224;6.580;2023-08-12T00:56:33;19.90;99.90
52030;DHT22;38043;53.224;6.580;2023-08-12T00:59:02;19.90;99.90
52030;DHT22;38043;53.224;6.580;2023-08-12T01:01:30;19.80;99.90
52030;DHT22;38043;53.224;6.580;2023-08-12T01:03:57;19.80;99.90
52030;DHT22;38043;53.224;6.580;2023-08-12T01:06:23;19.80;99.90
52030;DHT22;38043;53.224;6.580;2023-08-12T01:08:49;19.80;99.90
52030;DHT22;38043;53.224;6.580;2023-08-12T01:11:29;19.70;99.90
52030;DHT22;38043;53.224;6.580;2023-08-12T01:14:27;19.70;99.90
52030;DHT22;38043;53.224;6.580;2023-08-12T01:16:55;19.70;99.90
52030;DHT22;38043;53.224;6.580;2023-08-12T01:19:35;19.70;99.90
52030;DHT22;38043;53.224;6.580;2023-08-12T01:22:03;19.70;99.90
52030;DHT22;38043;53.224;6.580;2023-08-12T01:27:06;19.70;99.90
52030;DHT22;38043;53.224;6.580;2023-08-12T01:29:33;19.60;99.90
52030;DHT22;38043;53.224;6.580;2023-08-12T01:34:50;19.60;99.90
52030;DHT22;38043;53.224;6.580;2023-08-12T01:37:25;19.50;99.90
52030;DHT22;38043;53.224;6.580;2023-08-12T01:39:53;19.50;99.90
52030;DHT22;38043;53.224;6.580;2023-08-12T01:42:20;19.50;99.90
52030;DHT22;38043;53.224;6.580;2023-08-12T01:44:46;19.50;99.90
52030;DHT22;38043;53.224;6.580;2023-08-12T01:47:12;19.50;99.90
52030;DHT22;38043;53.224;6.580;2023-08-12T01:49:38;19.50;99.90
52030;DHT22;38043;53.224;6.580;2023-08-12T01:52:03;19.40;99.90
52030;DHT22;38043;53.224;6.580;2023-08-12T01:54:29;19.40;99.90
52030;DHT22;38043;53.224;6.580;2023-08-12T01:57:02;19.40;99.90
52030;DHT22;38043;53.224;6.580;2023-08-12T01:59:28;19.40;99.90
52030;DHT22;38043;53.224;6.580;2023-08-12T02:01:53;19.40;99.90
52030;DHT22;38043;53.224;6.580;2023-08-12T02:04:19;19.30;99.90
52030;DHT22;38043;53.224;6.580;2023-08-12T02:06:45;19.30;99.90
52030;DHT22;38043;53.224;6.580;2023-08-12T02:09:11;19.30;99.90
52030;DHT22;38043;53.224;6.580;2023-08-12T02:11:41;19.10;99.90
52030;DHT22;38043;53.224;6.580;2023-08-12T02:14:06;19.30;99.90
52030;DHT22;38043;53.224;6.580;2023-08-12T02:16:32;19.20;99.90
52030;DHT22;38043;53.224;6.580;2023-08-12T02:18:58;19.20;99.90
52030;DHT22;38043;53.224;6.580;2023-08-12T02:21:23;19.20;99.90
52030;DHT22;38043;53.224;6.580;2023-08-12T02:23:49;19.20;99.90
52030;DHT22;38043;53.224;6.580;2023-08-12T02:26:16;19.20;99.90
52030;DHT22;38043;53.224;6.580;2023-08-12T02:28:41;19.20;99.90
52030;DHT22;38043;53.224;6.580;2023-08-12T02:31:07;19.10;99.90
52030;DHT22;38043;53.224;6.580;2023-08-12T02:33:33;19.10;99.90
52030;DHT22;38043;53.224;6.580;2023-08-12T02:35:58;19.10;99.90
52030;DHT22;38043;53.224;6.580;2023-08-12T02:38:24;19.10;99.90
52030;DHT22;38043;53.224;6.580;2023-08-12T02:40:50;19.10;99.90
52030;DHT22;38043;53.224;6.580;2023-08-12T02:43:16;19.10;99.90
52030;DHT22;38043;53.224;6.580;2023-08-12T02:45:42;19.00;99.90
52030;DHT22;38043;53.224;6.580;2023-08-12T02:48:12;19.00;99.90
52030;DHT22;38043;53.224;6.580;2023-08-12T02:50:38;19.00;99.90
52030;DHT22;38043;53.224;6.580;2023-08-12T02:53:05;19.00;99.90
52030;DHT22;38043;53.224;6.580;2023-08-12T02:55:31;19.00;99.90
52030;DHT22;38043;53.224;6.580;2023-08-12T02:58:00;19.00;99.90
52030;DHT22;38043;53.224;6.580;2023-08-12T03:00:27;19.00;99.90
52030;DHT22;38043;53.224;6.580;2023-08-12T03:02:53;19.00;99.90
52030;DHT22;38043;53.224;6.580;2023-08-12T03:05:20;19.00;99.90
52030;DHT22;38043;53.224;6.580;2023-08-12T03:07:45;19.00;99.90
52030;DHT22;38043;53.224;6.580;2023-08-12T03:10:13;19.00;99.90
52030;DHT22;38043;53.224;6.580;2023-08-12T03:12:38;19.00;99.90
52030;DHT22;38043;53.224;6.580;2023-08-12T03:15:06;19.00;99.90
52030;DHT22;38043;53.224;6.580;2023-08-12T03:17:32;18.90;99.90
52030;DHT22;38043;53.224;6.580;2023-08-12T03:19:58;18.90;99.90
52030;DHT22;38043;53.224;6.580;2023-08-12T03:22:30;18.90;99.90
52030;DHT22;38043;53.224;6.580;2023-08-12T03:24:56;18.90;99.90
52030;DHT22;38043;53.224;6.580;2023-08-12T03:27:21;18.90;99.90
52030;DHT22;38043;53.224;6.580;2023-08-12T03:29:47;18.90;99.90
52030;DHT22;38043;53.224;6.580;2023-08-12T03:32:13;18.80;99.90
52030;DHT22;38043;53.224;6.580;2023-08-12T03:34:39;18.90;99.90
52030;DHT22;38043;53.224;6.580;2023-08-12T03:37:04;18.80;99.90
52030;DHT22;38043;53.224;6.580;2023-08-12T03:39:30;18.80;99.90
52030;DHT22;38043;53.224;6.580;2023-08-12T03:41:57;18.80;99.90
52030;DHT22;38043;53.224;6.580;2023-08-12T03:44:22;18.80;99.90
52030;DHT22;38043;53.224;6.580;2023-08-12T03:46:48;18.90;99.90
52030;DHT22;38043;53.224;6.580;2023-08-12T03:49:15;18.90;99.90
52030;DHT22;38043;53.224;6.580;2023-08-12T03:51:41;18.90;99.90
52030;DHT22;38043;53.224;6.580;2023-08-12T03:54:07;18.90;99.90
52030;DHT22;38043;53.224;6.580;2023-08-12T03:56:32;19.00;99.90
52030;DHT22;38043;53.224;6.580;2023-08-12T03:58:58;18.90;99.90
52030;DHT22;38043;53.224;6.580;2023-08-12T04:01:23;18.90;99.90
52030;DHT22;38043;53.224;6.580;2023-08-12T04:03:51;18.90;99.90
52030;DHT22;38043;53.224;6.580;2023-08-12T04:06:16;18.90;99.90
52030;DHT22;38043;53.224;6.580;2023-08-12T04:08:42;18.90;99.90
52030;DHT22;38043;53.224;6.580;2023-08-12T04:11:08;19.00;99.90
52030;DHT22;38043;53.224;6.580;2023-08-12T04:13:33;19.00;99.90
52030;DHT22;38043;53.224;6.580;2023-08-12T04:15:59;19.00;99.90
52030;DHT22;38043;53.224;6.580;2023-08-12T04:18:26;19.00;99.90
52030;DHT22;38043;53.224;6.580;2023-08-12T04:20:53;19.00;99.90
52030;DHT22;38043;53.224;6.580;2023-08-12T04:23:19;19.00;99.90
52030;DHT22;38043;53.224;6.580;2023-08-12T04:25:48;19.00;99.90
52030;DHT22;38043;53.224;6.580;2023-08-12T04:28:15;19.00;99.90
52030;DHT22;38043;53.224;6.580;2023-08-12T04:30:46;19.10;99.90
52030;DHT22;38043;53.224;6.580;2023-08-12T04:33:14;19.10;99.90
52030;DHT22;38043;53.224;6.580;2023-08-12T04:35:42;19.10;99.90
52030;DHT22;38043;53.224;6.580;2023-08-12T04:38:08;19.10;99.90
52030;DHT22;38043;53.224;6.580;2023-08-12T04:40:34;19.10;99.90
52030;DHT22;38043;53.224;6.580;2023-08-12T04:43:00;19.10;99.90
52030;DHT22;38043;53.224;6.580;2023-08-12T04:45:26;19.20;99.90
52030;DHT22;38043;53.224;6.580;2023-08-12T04:47:52;19.20;99.90
52030;DHT22;38043;53.224;6.580;2023-08-12T04:50:18;19.20;99.90
52030;DHT22;38043;53.224;6.580;2023-08-12T04:52:43;19.20;99.90
52030;DHT22;38043;53.224;6.580;2023-08-12T04:55:09;19.20;99.90
52030;DHT22;38043;53.224;6.580;2023-08-12T04:57:38;19.20;99.90
52030;DHT22;38043;53.224;6.580;2023-08-12T05:00:05;19.20;99.90
52030;DHT22;38043;53.224;6.580;2023-08-12T05:02:35;19.20;99.90
52030;DHT22;38043;53.224;6.580;2023-08-12T05:05:01;19.20;99.90
52030;DHT22;38043;53.224;6.580;2023-08-12T05:07:27;19.30;99.90
52030;DHT22;38043;53.224;6.580;2023-08-12T05:09:52;19.20;99.90
52030;DHT22;38043;53.224;6.580;2023-08-12T05:12:18;19.20;99.90
52030;DHT22;38043;53.224;6.580;2023-08-12T05:14:44;19.20;99.90
52030;DHT22;38043;53.224;6.580;2023-08-12T05:17:09;19.30;99.90
52030;DHT22;38043;53.224;6.580;2023-08-12T05:19:35;19.30;99.90
52030;DHT22;38043;53.224;6.580;2023-08-12T05:22:01;19.30;99.90
52030;DHT22;38043;53.224;6.580;2023-08-12T05:24:27;19.30;99.90
52030;DHT22;38043;53.224;6.580;2023-08-12T05:26:52;19.40;99.90
52030;DHT22;38043;53.224;6.580;2023-08-12T05:29:18;19.40;99.90
52030;DHT22;38043;53.224;6.580;2023-08-12T05:31:43;19.50;99.90
52030;DHT22;38043;53.224;6.580;2023-08-12T05:34:12;19.50;99.90
52030;DHT22;38043;53.224;6.580;2023-08-12T05:36:38;19.60;99.90
52030;DHT22;38043;53.224;6.580;2023-08-12T05:39:04;19.70;99.90
52030;DHT22;38043;53.224;6.580;2023-08-12T05:41:29;19.80;99.90
52030;DHT22;38043;53.224;6.580;2023-08-12T05:43:55;19.80;99.90
52030;DHT22;38043;53.224;6.580;2023-08-12T05:46:21;19.90;99.90
52030;DHT22;38043;53.224;6.580;2023-08-12T05:48:47;19.90;99.90
52030;DHT22;38043;53.224;6.580;2023-08-12T05:51:12;20.00;99.90
52030;DHT22;38043;53.224;6.580;2023-08-12T05:53:38;20.00;99.90
52030;DHT22;38043;53.224;6.580;2023-08-12T05:56:04;20.00;99.90
52030;DHT22;38043;53.224;6.580;2023-08-12T05:58:30;20.10;99.90
52030;DHT22;38043;53.224;6.580;2023-08-12T06:00:55;20.10;99.90
52030;DHT22;38043;53.224;6.580;2023-08-12T06:03:21;20.10;99.90
52030;DHT22;38043;53.224;6.580;2023-08-12T06:05:47;20.10;99.90
52030;DHT22;38043;53.224;6.580;2023-08-12T06:08:13;20.20;99.90
52030;DHT22;38043;53.224;6.580;2023-08-12T06:10:39;20.20;99.90
52030;DHT22;38043;53.224;6.580;2023-08-12T06:13:06;20.20;99.90
52030;DHT22;38043;53.224;6.580;2023-08-12T06:15:32;20.30;99.90
52030;DHT22;38043;53.224;6.580;2023-08-12T06:18:02;20.30;99.90
52030;DHT22;38043;53.224;6.580;2023-08-12T06:20:28;20.40;99.90
52030;DHT22;38043;53.224;6.580;2023-08-12T06:22:54;20.40;99.90
52030;DHT22;38043;53.224;6.580;2023-08-12T06:25:20;20.40;99.90
52030;DHT22;38043;53.224;6.580;2023-08-12T06:27:46;20.40;99.90
52030;DHT22;38043;53.224;6.580;2023-08-12T06:30:13;20.50;99.90
52030;DHT22;38043;53.224;6.580;2023-08-12T06:32:39;20.40;99.90
52030;DHT22;38043;53.224;6.580;2023-08-12T06:35:06;20.50;99.90
52030;DHT22;38043;53.224;6.580;2023-08-12T06:37:32;20.50;99.90
52030;DHT22;38043;53.224;6.580;2023-08-12T06:39:58;20.50;99.90
52030;DHT22;38043;53.224;6.580;2023-08-12T06:42:24;20.50;99.90
52030;DHT22;38043;53.224;6.580;2023-08-12T06:44:59;20.60;99.90
52030;DHT22;38043;53.224;6.580;2023-08-12T06:47:26;20.60;99.90
52030;DHT22;38043;53.224;6.580;2023-08-12T06:49:53;20.60;99.90
52030;DHT22;38043;53.224;6.580;2023-08-12T06:52:18;20.60;99.90
52030;DHT22;38043;53.224;6.580;2023-08-12T06:54:44;20.60;99.90
52030;DHT22;38043;53.224;6.580;2023-08-12T06:57:10;20.60;99.90
52030;DHT22;38043;53.224;6.580;2023-08-12T06:59:45;20.60;99.90
52030;DHT22;38043;53.224;6.580;2023-08-12T07:02:11;20.60;99.90
52030;DHT22;38043;53.224;6.580;2023-08-12T07:04:37;20.60;99.90
52030;DHT22;38043;53.224;6.580;2023-08-12T07:07:02;20.60;99.90
52030;DHT22;38043;53.224;6.580;2023-08-12T07:09:28;20.60;99.90
52030;DHT22;38043;53.224;6.580;2023-08-12T07:11:54;20.50;99.90
52030;DHT22;38043;53.224;6.580;2023-08-12T07:14:19;20.50;99.90
52030;DHT22;38043;53.224;6.580;2023-08-12T07:16:45;20.50;99.90
52030;DHT22;38043;53.224;6.580;2023-08-12T07:19:11;20.50;99.90
52030;DHT22;38043;53.224;6.580;2023-08-12T07:21:37;20.50;99.90
52030;DHT22;38043;53.224;6.580;2023-08-12T07:24:02;20.50;99.90
52030;DHT22;38043;53.224;6.580;2023-08-12T07:26:28;20.50;99.90
52030;DHT22;38043;53.224;6.580;2023-08-12T07:28:54;20.50;99.90
52030;DHT22;38043;53.224;6.580;2023-08-12T07:31:20;20.50;99.90
52030;DHT22;38043;53.224;6.580;2023-08-12T07:33:45;20.50;99.90
52030;DHT22;38043;53.224;6.580;2023-08-12T07:36:11;20.60;99.90
52030;DHT22;38043;53.224;6.580;2023-08-12T07:38:37;20.60;99.90
52030;DHT22;38043;53.224;6.580;2023-08-12T07:41:02;20.70;99.90
52030;DHT22;38043;53.224;6.580;2023-08-12T07:43:28;20.70;99.90
52030;DHT22;38043;53.224;6.580;2023-08-12T07:45:54;20.70;99.90
52030;DHT22;38043;53.224;6.580;2023-08-12T07:48:20;20.80;99.90
52030;DHT22;38043;53.224;6.580;2023-08-12T07:50:47;20.80;99.90
52030;DHT22;38043;53.224;6.580;2023-08-12T07:53:15;20.80;99.90
52030;DHT22;38043;53.224;6.580;2023-08-12T07:55:42;20.80;99.90
52030;DHT22;38043;53.224;6.580;2023-08-12T07:58:08;20.80;99.90
52030;DHT22;38043;53.224;6.580;2023-08-12T08:00:34;20.80;99.90
52030;DHT22;38043;53.224;6.580;2023-08-12T08:03:00;20.80;99.90
52030;DHT22;38043;53.224;6.580;2023-08-12T08:05:25;20.80;99.90
52030;DHT22;38043;53.224;6.580;2023-08-12T08:07:51;20.80;99.90
52030;DHT22;38043;53.224;6.580;2023-08-12T08:10:16;20.80;99.90
52030;DHT22;38043;53.224;6.580;2023-08-12T08:12:42;20.80;99.90
52030;DHT22;38043;53.224;6.580;2023-08-12T08:15:08;20.80;99.90
52030;DHT22;38043;53.224;6.580;2023-08-12T08:17:34;20.80;99.90
52030;DHT22;38043;53.224;6.580;2023-08-12T08:20:00;20.80;99.90
52030;DHT22;38043;53.224;6.580;2023-08-12T08:22:26;20.80;99.90
52030;DHT22;38043;53.224;6.580;2023-08-12T08:24:51;20.80;99.90
52030;DHT22;38043;53.224;6.580;2023-08-12T08:27:17;20.80;99.90
52030;DHT22;38043;53.224;6.580;2023-08-12T08:29:43;20.80;99.90
52030;DHT22;38043;53.224;6.580;2023-08-12T08:32:08;20.80;99.90
52030;DHT22;38043;53.224;6.580;2023-08-12T08:34:34;20.80;99.90
52030;DHT22;38043;53.224;6.580;2023-08-12T08:37:00;20.90;99.90
52030;DHT22;38043;53.224;6.580;2023-08-12T08:39:25;20.90;99.90
52030;DHT22;38043;53.224;6.580;2023-08-12T08:41:53;20.90;99.90
52030;DHT22;38043;53.224;6.580;2023-08-12T08:44:22;21.00;99.90
52030;DHT22;38043;53.224;6.580;2023-08-12T08:46:51;20.90;99.90
52030;DHT22;38043;53.224;6.580;2023-08-12T08:49:17;20.90;99.90
52030;DHT22;38043;53.224;6.580;2023-08-12T08:51:44;20.90;99.90
52030;DHT22;38043;53.224;6.580;2023-08-12T08:54:11;20.90;99.90
52030;DHT22;38043;53.224;6.580;2023-08-12T08:56:40;20.90;99.90
52030;DHT22;38043;53.224;6.580;2023-08-12T08:59:06;20.90;99.90
52030;DHT22;38043;53.224;6.580;2023-08-12T09:01:32;20.90;99.90
52030;DHT22;38043;53.224;6.580;2023-08-12T09:03:58;20.90;99.90
52030;DHT22;38043;53.224;6.580;2023-08-12T09:06:25;20.80;99.90
52030;DHT22;38043;53.224;6.580;2023-08-12T09:08:52;20.80;99.90
52030;DHT22;38043;53.224;6.580;2023-08-12T09:11:18;20.80;99.90
52030;DHT22;38043;53.224;6.580;2023-08-12T09:13:45;20.70;99.90
52030;DHT22;38043;53.224;6.580;2023-08-12T09:16:10;20.70;99.90
52030;DHT22;38043;53.224;6.580;2023-08-12T09:18:37;20.70;99.90
52030;DHT22;38043;53.224;6.580;2023-08-12T09:21:04;20.70;99.90
52030;DHT22;38043;53.224;6.580;2023-08-12T09:23:40;20.60;99.90
52030;DHT22;38043;53.224;6.580;2023-08-12T09:26:20;20.60;99.90
52030;DHT22;38043;53.224;6.580;2023-08-12T09:28:46;20.50;99.90
52030;DHT22;38043;53.224;6.580;2023-08-12T09:31:26;20.50;99.90
52030;DHT22;38043;53.224;6.580;2023-08-12T09:33:57;20.50;99.90
52030;DHT22;38043;53.224;6.580;2023-08-12T09:36:23;20.60;99.90
52030;DHT22;38043;53.224;6.580;2023-08-12T09:38:49;20.60;99.90
52030;DHT22;38043;53.224;6.580;2023-08-12T09:41:15;20.60;99.90
52030;DHT22;38043;53.224;6.580;2023-08-12T09:43:42;20.60;99.90
52030;DHT22;38043;53.224;6.580;2023-08-12T09:46:11;20.60;99.90
52030;DHT22;38043;53.224;6.580;2023-08-12T09:48:38;20.60;99.90
52030;DHT22;38043;53.224;6.580;2023-08-12T09:51:04;20.70;99.90
52030;DHT22;38043;53.224;6.580;2023-08-12T09:53:30;20.70;99.90
52030;DHT22;38043;53.224;6.580;2023-08-12T09:55:58;20.70;99.90
52030;DHT22;38043;53.224;6.580;2023-08-12T09:58:30;20.70;99.90
52030;DHT22;38043;53.224;6.580;2023-08-12T10:00:56;20.70;99.90
52030;DHT22;38043;53.224;6.580;2023-08-12T10:03:23;20.70;99.90
52030;DHT22;38043;53.224;6.580;2023-08-12T10:05:50;20.70;99.90
52030;DHT22;38043;53.224;6.580;2023-08-12T10:08:17;20.70;99.90
52030;DHT22;38043;53.224;6.580;2023-08-12T10:10:43;20.70;99.90
52030;DHT22;38043;53.224;6.580;2023-08-12T10:13:10;20.70;99.90
52030;DHT22;38043;53.224;6.580;2023-08-12T10:15:37;20.70;99.90
52030;DHT22;38043;53.224;6.580;2023-08-12T10:18:05;20.70;99.90
52030;DHT22;38043;53.224;6.580;2023-08-12T10:20:31;20.70;99.90
52030;DHT22;38043;53.224;6.580;2023-08-12T10:22:59;20.70;99.90
52030;DHT22;38043;53.224;6.580;2023-08-12T10:25:31;20.60;99.90
52030;DHT22;38043;53.224;6.580;2023-08-12T10:27:57;20.60;99.90
52030;DHT22;38043;53.224;6.580;2023-08-12T10:30:23;20.60;99.90
52030;DHT22;38043;53.224;6.580;2023-08-12T10:32:49;20.50;99.90
52030;DHT22;38043;53.224;6.580;2023-08-12T10:35:15;20.50;99.90
52030;DHT22;38043;53.224;6.580;2023-08-12T10:37:41;20.60;99.90
52030;DHT22;38043;53.224;6.580;2023-08-12T10:40:21;20.50;99.90
52030;DHT22;38043;53.224;6.580;2023-08-12T10:42:48;20.50;99.90
52030;DHT22;38043;53.224;6.580;2023-08-12T10:45:16;20.50;99.90
52030;DHT22;38043;53.224;6.580;2023-08-12T10:47:43;20.50;99.90
52030;DHT22;38043;53.224;6.580;2023-08-12T10:50:16;20.50;99.90
52030;DHT22;38043;53.224;6.580;2023-08-12T10:52:42;20.50;99.90
52030;DHT22;38043;53.224;6.580;2023-08-12T10:57:47;20.40;99.90
52030;DHT22;38043;53.224;6.580;2023-08-12T11:00:15;20.50;99.90
52030;DHT22;38043;53.224;6.580;2023-08-12T11:02:44;20.40;99.90
52030;DHT22;38043;53.224;6.580;2023-08-12T11:05:11;20.30;99.90
52030;DHT22;38043;53.224;6.580;2023-08-12T11:07:42;20.30;99.90
52030;DHT22;38043;53.224;6.580;2023-08-12T11:10:22;20.30;99.90
52030;DHT22;38043;53.224;6.580;2023-08-12T11:12:52;20.20;99.90
52030;DHT22;38043;53.224;6.580;2023-08-12T11:15:40;20.20;99.90
52030;DHT22;38043;53.224;6.580;2023-08-12T11:18:13;20.20;99.90
52030;DHT22;38043;53.224;6.580;2023-08-12T11:20:40;20.20;99.90
52030;DHT22;38043;53.224;6.580;2023-08-12T11:23:07;20.20;99.90
52030;DHT22;38043;53.224;6.580;2023-08-12T11:25:34;20.30;99.90
52030;DHT22;38043;53.224;6.580;2023-08-12T11:28:00;20.30;99.90
52030;DHT22;38043;53.224;6.580;2023-08-12T11:30:27;20.30;99.90
52030;DHT22;38043;53.224;6.580;2023-08-12T11:32:54;20.30;99.90
52030;DHT22;38043;53.224;6.580;2023-08-12T11:35:23;20.30;99.90
52030;DHT22;38043;53.224;6.580;2023-08-12T11:37:51;20.40;99.90
52030;DHT22;38043;53.224;6.580;2023-08-12T11:40:19;20.40;99.90
52030;DHT22;38043;53.224;6.580;2023-08-12T11:42:47;20.50;99.90
52030;DHT22;38043;53.224;6.580;2023-08-12T11:45:17;20.50;99.90
52030;DHT22;38043;53.224;6.580;2023-08-12T11:47:43;20.50;99.90
52030;DHT22;38043;53.224;6.580;2023-08-12T11:50:14;20.50;99.90
52030;DHT22;38043;53.224;6.580;2023-08-12T11:52:40;20.60;99.90
52030;DHT22;38043;53.224;6.580;2023-08-12T11:55:07;20.50;99.90
52030;DHT22;38043;53.224;6.580;2023-08-12T11:57:34;20.60;99.90
52030;DHT22;38043;53.224;6.580;2023-08-12T12:00:02;20.50;99.90
52030;DHT22;38043;53.224;6.580;2023-08-12T12:02:30;20.40;99.90
52030;DHT22;38043;53.224;6.580;2023-08-12T12:04:56;20.50;99.90
52030;DHT22;38043;53.224;6.580;2023-08-12T12:07:24;20.30;99.90
52030;DHT22;38043;53.224;6.580;2023-08-12T12:09:50;20.10;99.90
52030;DHT22;38043;53.224;6.580;2023-08-12T12:12:16;19.80;99.90
52030;DHT22;38043;53.224;6.580;2023-08-12T12:14:42;19.60;99.90
52030;DHT22;38043;53.224;6.580;2023-08-12T12:17:10;19.40;99.90
52030;DHT22;38043;53.224;6.580;2023-08-12T12:19:36;19.30;99.90
52030;DHT22;38043;53.224;6.580;2023-08-12T12:22:03;19.20;99.90
52030;DHT22;38043;53.224;6.580;2023-08-12T12:24:31;19.20;99.90
52030;DHT22;38043;53.224;6.580;2023-08-12T12:26:56;19.10;99.90
52030;DHT22;38043;53.224;6.580;2023-08-12T12:29:23;19.10;99.90
52030;DHT22;38043;53.224;6.580;2023-08-12T12:31:49;19.00;99.90
52030;DHT22;38043;53.224;6.580;2023-08-12T12:34:14;19.00;99.90
52030;DHT22;38043;53.224;6.580;2023-08-12T12:36:40;19.00;99.90
52030;DHT22;38043;53.224;6.580;2023-08-12T12:39:06;18.90;99.90
52030;DHT22;38043;53.224;6.580;2023-08-12T12:41:33;18.90;99.90
52030;DHT22;38043;53.224;6.580;2023-08-12T12:44:02;18.90;99.90
52030;DHT22;38043;53.224;6.580;2023-08-12T12:46:28;18.90;99.90
52030;DHT22;38043;53.224;6.580;2023-08-12T12:48:54;19.10;99.90
52030;DHT22;38043;53.224;6.580;2023-08-12T12:51:20;19.20;99.90
52030;DHT22;38043;53.224;6.580;2023-08-12T12:53:45;19.30;99.90
52030;DHT22;38043;53.224;6.580;2023-08-12T12:56:11;19.30;99.90
52030;DHT22;38043;53.224;6.580;2023-08-12T12:58:37;19.30;99.90
52030;DHT22;38043;53.224;6.580;2023-08-12T13:01:04;19.20;99.90
52030;DHT22;38043;53.224;6.580;2023-08-12T13:03:31;19.20;99.90
52030;DHT22;38043;53.224;6.580;2023-08-12T13:05:57;19.20;99.90
52030;DHT22;38043;53.224;6.580;2023-08-12T13:08:23;19.40;99.90
52030;DHT22;38043;53.224;6.580;2023-08-12T13:10:49;19.70;99.90
52030;DHT22;38043;53.224;6.580;2023-08-12T13:13:17;20.00;99.90
52030;DHT22;38043;53.224;6.580;2023-08-12T13:15:45;20.30;99.90
52030;DHT22;38043;53.224;6.580;2023-08-12T13:18:11;20.80;99.90
52030;DHT22;38043;53.224;6.580;2023-08-12T13:20:38;21.30;99.90
52030;DHT22;38043;53.224;6.580;2023-08-12T13:23:04;21.60;99.90
52030;DHT22;38043;53.224;6.580;2023-08-12T13:25:32;21.70;99.90
52030;DHT22;38043;53.224;6.580;2023-08-12T13:28:00;21.70;99.90
52030;DHT22;38043;53.224;6.580;2023-08-12T13:30:27;21.90;99.90
52030;DHT22;38043;53.224;6.580;2023-08-12T13:32:52;22.00;99.90
52030;DHT22;38043;53.224;6.580;2023-08-12T13:35:18;22.20;99.90
52030;DHT22;38043;53.224;6.580;2023-08-12T13:37:44;22.40;99.90
52030;DHT22;38043;53.224;6.580;2023-08-12T13:40:10;22.20;99.90
52030;DHT22;38043;53.224;6.580;2023-08-12T13:42:37;22.20;99.90
52030;DHT22;38043;53.224;6.580;2023-08-12T13:45:04;22.20;99.90
52030;DHT22;38043;53.224;6.580;2023-08-12T13:47:30;22.20;99.90
52030;DHT22;38043;53.224;6.580;2023-08-12T13:49:56;22.40;99.90
52030;DHT22;38043;53.224;6.580;2023-08-12T13:52:22;22.50;99.90
52030;DHT22;38043;53.224;6.580;2023-08-12T13:54:47;22.70;99.90
52030;DHT22;38043;53.224;6.580;2023-08-12T13:57:13;23.00;99.90
52030;DHT22;38043;53.224;6.580;2023-08-12T13:59:39;23.20;99.90
52030;DHT22;38043;53.224;6.580;2023-08-12T14:02:06;23.50;99.90
52030;DHT22;38043;53.224;6.580;2023-08-12T14:04:32;23.70;99.90
52030;DHT22;38043;53.224;6.580;2023-08-12T14:06:58;23.90;99.90
52030;DHT22;38043;53.224;6.580;2023-08-12T14:09:23;24.10;99.90
52030;DHT22;38043;53.224;6.580;2023-08-12T14:11:49;24.10;99.90
52030;DHT22;38043;53.224;6.580;2023-08-12T14:14:15;24.10;99.90
52030;DHT22;38043;53.224;6.580;2023-08-12T14:16:40;24.20;99.90
52030;DHT22;38043;53.224;6.580;2023-08-12T14:19:07;24.10;99.90
52030;DHT22;38043;53.224;6.580;2023-08-12T14:21:33;24.30;99.90
52030;DHT22;38043;53.224;6.580;2023-08-12T14:23:58;24.30;99.90
52030;DHT22;38043;53.224;6.580;2023-08-12T14:26:24;24.30;99.90
52030;DHT22;38043;53.224;6.580;2023-08-12T14:28:50;24.60;99.90
52030;DHT22;38043;53.224;6.580;2023-08-12T14:31:15;25.20;99.90
52030;DHT22;38043;53.224;6.580;2023-08-12T14:33:41;25.90;99.90
52030;DHT22;38043;53.224;6.580;2023-08-12T14:36:06;26.30;99.90
52030;DHT22;38043;53.224;6.580;2023-08-12T14:38:32;26.60;99.90
52030;DHT22;38043;53.224;6.580;2023-08-12T14:40:58;26.90;99.90
52030;DHT22;38043;53.224;6.580;2023-08-12T14:43:24;27.00;99.90
52030;DHT22;38043;53.224;6.580;2023-08-12T14:45:49;26.80;99.90
52030;DHT22;38043;53.224;6.580;2023-08-12T14:48:15;26.40;99.90
52030;DHT22;38043;53.224;6.580;2023-08-12T14:50:42;25.40;99.90
52030;DHT22;38043;53.224;6.580;2023-08-12T14:53:09;24.60;99.90
52030;DHT22;38043;53.224;6.580;2023-08-12T14:55:34;24.00;99.90
52030;DHT22;38043;53.224;6.580;2023-08-12T14:58:00;23.60;99.90
52030;DHT22;38043;53.224;6.580;2023-08-12T15:00:26;23.20;99.90
52030;DHT22;38043;53.224;6.580;2023-08-12T15:02:51;23.00;99.90
52030;DHT22;38043;53.224;6.580;2023-08-12T15:05:17;22.80;99.90
52030;DHT22;38043;53.224;6.580;2023-08-12T15:07:43;22.50;99.90
52030;DHT22;38043;53.224;6.580;2023-08-12T15:10:09;22.30;99.90
52030;DHT22;38043;53.224;6.580;2023-08-12T15:12:35;22.10;99.90
52030;DHT22;38043;53.224;6.580;2023-08-12T15:15:02;22.00;99.90
52030;DHT22;38043;53.224;6.580;2023-08-12T15:17:28;21.90;99.90
52030;DHT22;38043;53.224;6.580;2023-08-12T15:19:54;21.80;99.90
52030;DHT22;38043;53.224;6.580;2023-08-12T15:22:19;21.70;99.90
52030;DHT22;38043;53.224;6.580;2023-08-12T15:24:45;21.60;99.90
52030;DHT22;38043;53.224;6.580;2023-08-12T15:27:11;21.60;99.90
52030;DHT22;38043;53.224;6.580;2023-08-12T15:29:36;21.50;99.90
52030;DHT22;38043;53.224;6.580;2023-08-12T15:32:02;21.40;99.90
52030;DHT22;38043;53.224;6.580;2023-08-12T15:34:29;21.40;99.90